Time;durP1;ratioP1;P1;durP2;ratioP2;P2;SDS_P1;SDS_P2;PMS_P1;PMS_P2;Temp;Humidity;BMP_temperature;BMP_pressure;BME280_temperature;BME280_humidity;BME280_pressure;Samples;Min_cycle;Max_cycle;Signal;HPM_P1;HPM_P2
2022/10/31 15:00:34;;;;;;;1.88;1.77;;;;;;;;;;6298284;22;20023;-74
2022/10/31 15:03:09;;;;;;;2.17;1.90;;;;;;;;;;6299696;22;20023;-73
2022/10/31 15:05:36;;;;;;;3.08;1.80;;;;;;;;;;6299942;22;20410;-73
2022/10/31 15:08:02;;;;;;;2.10;2.00;;;;;;;;;;6273594;22;20112;-73
2022/10/31 15:10:29;;;;;;;2.33;2.20;;;;;;;;;;6300569;22;20072;-72
2022/10/31 15:12:55;;;;;;;1.98;1.88;;;;;;;;;;6300035;22;20008;-73
2022/10/31 15:15:22;;;;;;;2.15;2.05;;;;;;;;;;6300587;22;20054;-73
2022/10/31 15:17:50;;;;;;;2.70;2.50;;;;;;;;;;6300935;22;20015;-72
2022/10/31 15:20:20;;;;;;;2.30;1.88;;;;;;;;;;6248266;22;20069;-74
2022/10/31 15:22:46;;;;;;;2.33;2.22;;;;;;;;;;6272977;22;20031;-73
2022/10/31 15:25:18;;;;;;;2.13;2.00;;;;;;;;;;6303488;22;20591;-73
2022/10/31 15:27:45;;;;;;;2.70;2.00;;;;;;;;;;6303092;22;20007;-74
2022/10/31 15:30:27;;;;;;;1.90;1.80;;;;;;;;;;6303415;22;20011;-73
2022/10/31 15:32:53;;;;;;;2.35;2.25;;;;;;;;;;6250489;22;20018;-73
2022/10/31 15:35:20;;;;;;;2.47;2.28;;;;;;;;;;6303198;22;20007;-72
2022/10/31 15:37:46;;;;;;;2.00;1.90;;;;;;;;;;6307866;22;20026;-72
2022/10/31 15:40:14;;;;;;;1.92;1.83;;;;;;;;;;6283629;22;20015;-74
2022/10/31 15:42:40;;;;;;;1.73;1.63;;;;;;;;;;6286077;22;20553;-72
2022/10/31 15:45:13;;;;;;;2.30;2.08;;;;;;;;;;6285314;22;20455;-73
2022/10/31 15:47:39;;;;;;;2.63;2.42;;;;;;;;;;6308802;22;20095;-73
2022/10/31 15:50:12;;;;;;;2.40;2.30;;;;;;;;;;6275883;22;20014;-73
2022/10/31 15:52:42;;;;;;;2.53;2.38;;;;;;;;;;6251370;22;20022;-74
2022/10/31 15:55:08;;;;;;;2.00;1.90;;;;;;;;;;6250052;22;20572;-74
2022/10/31 15:57:39;;;;;;;2.65;2.45;;;;;;;;;;6302759;22;20011;-73
2022/10/31 16:00:05;;;;;;;3.33;2.42;;;;;;;;;;6249730;22;20023;-73
2022/10/31 16:02:31;;;;;;;2.63;2.42;;;;;;;;;;6304768;22;20023;-74
2022/10/31 16:04:58;;;;;;;2.50;2.30;;;;;;;;;;6252012;22;20122;-73
2022/10/31 16:07:24;;;;;;;1.80;1.80;;;;;;;;;;6250295;22;20019;-73
2022/10/31 16:09:53;;;;;;;2.20;2.10;;;;;;;;;;6302516;22;20014;-73
2022/10/31 16:12:19;;;;;;;2.40;2.20;;;;;;;;;;6275353;22;20065;-73
2022/10/31 16:14:45;;;;;;;2.20;1.98;;;;;;;;;;6302205;22;20017;-73
2022/10/31 16:17:12;;;;;;;2.60;2.30;;;;;;;;;;6224458;22;20098;-73
2022/10/31 16:19:42;;;;;;;2.28;2.10;;;;;;;;;;6301540;22;20015;-72
2022/10/31 16:22:09;;;;;;;8.68;2.17;;;;;;;;;;6249776;22;20660;-73
2022/10/31 16:24:46;;;;;;;2.50;2.40;;;;;;;;;;6302259;22;20472;-75
2022/10/31 16:27:19;;;;;;;2.10;2.00;;;;;;;;;;6275869;22;20014;-74
2022/10/31 16:29:46;;;;;;;1.90;1.80;;;;;;;;;;6275562;22;20012;-76
2022/10/31 16:32:29;;;;;;;1.88;1.77;;;;;;;;;;6249826;22;20438;-74
2022/10/31 16:34:59;;;;;;;2.20;2.10;;;;;;;;;;6273972;22;20019;-75
2022/10/31 16:37:25;;;;;;;2.10;2.00;;;;;;;;;;6249565;22;20014;-76
2022/10/31 16:39:50;;;;;;;2.50;2.40;;;;;;;;;;6300058;22;20015;-75
2022/10/31 16:42:16;;;;;;;3.42;2.08;;;;;;;;;;6302136;22;20019;-73
2022/10/31 16:44:43;;;;;;;2.00;1.90;;;;;;;;;;6300085;22;20037;-73
2022/10/31 16:47:11;;;;;;;2.97;2.10;;;;;;;;;;6274306;22;20080;-75
2022/10/31 16:49:37;;;;;;;2.08;1.98;;;;;;;;;;6274876;22;20436;-74
2022/10/31 16:52:03;;;;;;;2.00;1.90;;;;;;;;;;6302181;22;20018;-73
2022/10/31 16:54:29;;;;;;;2.10;1.90;;;;;;;;;;6302061;22;20335;-74
2022/10/31 16:56:55;;;;;;;1.80;1.70;;;;;;;;;;6274518;22;20050;-74
2022/10/31 16:59:20;;;;;;;1.85;1.75;;;;;;;;;;6249366;22;20458;-74
2022/10/31 17:01:47;;;;;;;2.25;2.15;;;;;;;;;;6301905;22;20042;-74
2022/10/31 17:04:14;;;;;;;1.73;1.73;;;;;;;;;;6302073;22;20094;-74
2022/10/31 17:06:40;;;;;;;2.00;1.90;;;;;;;;;;6301725;22;20831;-73
2022/10/31 17:09:06;;;;;;;2.17;1.85;;;;;;;;;;6249092;22;20023;-73
2022/10/31 17:11:32;;;;;;;1.73;1.73;;;;;;;;;;6249317;22;20526;-74
2022/10/31 17:13:58;;;;;;;1.70;1.40;;;;;;;;;;6302300;22;20042;-75
2022/10/31 17:16:24;;;;;;;2.10;2.00;;;;;;;;;;6274589;22;20015;-72
2022/10/31 17:18:50;;;;;;;1.67;1.58;;;;;;;;;;6301963;22;20354;-73
2022/10/31 17:21:21;;;;;;;2.15;2.05;;;;;;;;;;6278038;22;20011;-75
2022/10/31 17:23:48;;;;;;;1.90;1.80;;;;;;;;;;6304585;22;20470;-75
2022/10/31 17:26:13;;;;;;;2.13;2.00;;;;;;;;;;6274749;22;20011;-74
2022/10/31 17:28:40;;;;;;;1.45;1.35;;;;;;;;;;6273954;22;20015;-75
2022/10/31 17:31:06;;;;;;;1.70;1.60;;;;;;;;;;6302008;22;20383;-75
2022/10/31 17:33:31;;;;;;;3.53;2.10;;;;;;;;;;6300615;22;20018;-75
2022/10/31 17:35:58;;;;;;;1.80;1.80;;;;;;;;;;6301796;22;20057;-75
2022/10/31 17:38:23;;;;;;;1.65;1.55;;;;;;;;;;6301449;22;20011;-74
2022/10/31 17:40:49;;;;;;;2.45;1.80;;;;;;;;;;6273961;22;20018;-75
2022/10/31 17:43:15;;;;;;;1.83;1.73;;;;;;;;;;6301358;22;20018;-74
2022/10/31 17:45:41;;;;;;;1.75;1.65;;;;;;;;;;6300984;22;20545;-73
2022/10/31 17:48:08;;;;;;;2.05;1.90;;;;;;;;;;6302016;22;20019;-75
2022/10/31 17:50:35;;;;;;;2.05;1.95;;;;;;;;;;6301186;22;20003;-74
2022/10/31 17:53:01;;;;;;;2.50;1.80;;;;;;;;;;6301778;22;20077;-74
2022/10/31 17:55:27;;;;;;;1.73;1.70;;;;;;;;;;6274106;22;20023;-73
2022/10/31 17:57:53;;;;;;;1.63;1.58;;;;;;;;;;6274163;22;20703;-73
2022/10/31 18:00:23;;;;;;;3.30;2.08;;;;;;;;;;6301137;22;20030;-74
2022/10/31 18:02:49;;;;;;;2.00;1.90;;;;;;;;;;6274134;22;20030;-74
2022/10/31 18:05:15;;;;;;;2.42;2.20;;;;;;;;;;6301893;22;20003;-76
2022/10/31 18:07:41;;;;;;;1.70;1.60;;;;;;;;;;6301147;22;20093;-74
2022/10/31 18:10:07;;;;;;;1.60;1.58;;;;;;;;;;6300765;22;20404;-74
2022/10/31 18:12:37;;;;;;;1.73;1.63;;;;;;;;;;6296146;22;20011;-75
2022/10/31 18:15:02;;;;;;;3.53;2.15;;;;;;;;;;6298910;22;20526;-73
2022/10/31 18:17:29;;;;;;;1.98;1.88;;;;;;;;;;6271969;22;20339;-73
2022/10/31 18:19:55;;;;;;;3.05;1.52;;;;;;;;;;6297965;22;20035;-74
2022/10/31 18:22:21;;;;;;;1.92;1.60;;;;;;;;;;6269344;22;20069;-73
2022/10/31 18:24:46;;;;;;;1.80;1.70;;;;;;;;;;6298569;22;20617;-72
2022/10/31 18:27:12;;;;;;;1.90;1.80;;;;;;;;;;6299478;22;20583;-73
2022/10/31 18:29:38;;;;;;;2.33;1.75;;;;;;;;;;6300779;22;20463;-72
2022/10/31 18:32:06;;;;;;;1.55;1.45;;;;;;;;;;6274291;22;20007;-73
2022/10/31 18:34:32;;;;;;;1.92;1.83;;;;;;;;;;6300799;22;20015;-72
2022/10/31 18:36:58;;;;;;;1.48;1.48;;;;;;;;;;6301103;22;20011;-73
2022/10/31 18:39:24;;;;;;;1.90;1.80;;;;;;;;;;6300787;22;20061;-72
2022/10/31 18:41:50;;;;;;;2.28;2.17;;;;;;;;;;6273360;22;20090;-73
2022/10/31 18:44:16;;;;;;;1.63;1.52;;;;;;;;;;6273873;22;20065;-73
2022/10/31 18:46:42;;;;;;;2.70;1.85;;;;;;;;;;6272941;22;20018;-73
2022/10/31 18:49:08;;;;;;;1.58;1.58;;;;;;;;;;6301422;22;20015;-73
2022/10/31 18:51:34;;;;;;;2.35;2.00;;;;;;;;;;6299933;22;20011;-74
2022/10/31 18:54:00;;;;;;;1.90;1.80;;;;;;;;;;6248154;22;20011;-73
2022/10/31 18:56:26;;;;;;;2.10;2.00;;;;;;;;;;6273697;22;20041;-73
2022/10/31 18:58:52;;;;;;;1.95;1.85;;;;;;;;;;6300244;22;20026;-72
2022/10/31 19:01:18;;;;;;;2.00;1.90;;;;;;;;;;6273483;22;20011;-72
2022/10/31 19:03:44;;;;;;;1.70;1.70;;;;;;;;;;6300287;22;20027;-72
2022/10/31 19:06:10;;;;;;;2.78;1.75;;;;;;;;;;6301001;22;20504;-72
2022/10/31 19:08:36;;;;;;;1.83;1.73;;;;;;;;;;6273050;22;20034;-72
2022/10/31 19:11:09;;;;;;;2.00;1.90;;;;;;;;;;6301499;22;20011;-76
2022/10/31 19:13:35;;;;;;;1.52;1.52;;;;;;;;;;6300282;22;20089;-71
2022/10/31 19:16:09;;;;;;;1.90;1.80;;;;;;;;;;6275575;22;20101;-72
2022/10/31 19:18:35;;;;;;;1.48;1.38;;;;;;;;;;6277049;22;20463;-72
2022/10/31 19:21:05;;;;;;;2.05;1.63;;;;;;;;;;6305005;22;20006;-72
2022/10/31 19:23:31;;;;;;;2.00;1.90;;;;;;;;;;6305617;22;20106;-72
2022/10/31 19:25:58;;;;;;;1.98;1.88;;;;;;;;;;6303312;22;20008;-73
2022/10/31 19:28:25;;;;;;;1.65;1.65;;;;;;;;;;6273733;22;20022;-74
2022/10/31 19:30:51;;;;;;;1.73;1.67;;;;;;;;;;6247088;22;20015;-72
2022/10/31 19:33:17;;;;;;;1.70;1.60;;;;;;;;;;6300906;22;20022;-73
2022/10/31 19:35:43;;;;;;;1.77;1.75;;;;;;;;;;6300668;22;20015;-73
2022/10/31 19:38:09;;;;;;;1.70;1.70;;;;;;;;;;6273744;22;20022;-73
2022/10/31 19:40:35;;;;;;;2.00;1.90;;;;;;;;;;6273173;22;20011;-73
2022/10/31 19:43:01;;;;;;;1.90;1.80;;;;;;;;;;6301567;22;20080;-73
2022/10/31 19:45:27;;;;;;;1.30;1.30;;;;;;;;;;6300702;22;20081;-73
2022/10/31 19:47:53;;;;;;;2.10;1.85;;;;;;;;;;6300258;22;20102;-75
2022/10/31 19:50:20;;;;;;;1.80;1.70;;;;;;;;;;6300716;22;20435;-74
2022/10/31 19:52:46;;;;;;;2.80;1.70;;;;;;;;;;6300403;22;20018;-72
2022/10/31 19:55:11;;;;;;;2.17;1.70;;;;;;;;;;6273421;22;20379;-73
2022/10/31 19:57:38;;;;;;;1.60;1.60;;;;;;;;;;6273570;22;20011;-71
2022/10/31 20:00:04;;;;;;;1.92;1.75;;;;;;;;;;6301593;22;20029;-71
2022/10/31 20:02:38;;;;;;;1.58;1.58;;;;;;;;;;6300462;22;20043;-73
2022/10/31 20:05:04;;;;;;;2.00;1.90;;;;;;;;;;6301153;22;20061;-73
2022/10/31 20:07:30;;;;;;;1.67;1.67;;;;;;;;;;6274016;22;20038;-73
2022/10/31 20:09:56;;;;;;;2.20;1.67;;;;;;;;;;6301574;22;20015;-72
2022/10/31 20:12:22;;;;;;;1.30;1.30;;;;;;;;;;6301836;22;20102;-73
2022/10/31 20:14:48;;;;;;;1.60;1.50;;;;;;;;;;6302207;22;20011;-74
2022/10/31 20:17:14;;;;;;;1.90;1.80;;;;;;;;;;6275391;22;20015;-73
2022/10/31 20:19:40;;;;;;;2.63;2.53;;;;;;;;;;6274687;22;20023;-73
2022/10/31 20:22:06;;;;;;;2.50;2.40;;;;;;;;;;6275424;22;20011;-72
2022/10/31 20:24:32;;;;;;;2.50;2.40;;;;;;;;;;6275152;22;20069;-72
2022/10/31 20:26:58;;;;;;;1.92;1.88;;;;;;;;;;6272544;22;20464;-73
2022/10/31 20:29:24;;;;;;;2.67;2.47;;;;;;;;;;6302124;22;20015;-73
2022/10/31 20:31:49;;;;;;;2.22;1.90;;;;;;;;;;6302214;22;20011;-73
2022/10/31 20:34:15;;;;;;;1.80;1.70;;;;;;;;;;6302248;22;20038;-73
2022/10/31 20:36:41;;;;;;;2.58;1.80;;;;;;;;;;6301347;22;20015;-73
2022/10/31 20:39:07;;;;;;;1.60;1.50;;;;;;;;;;6302135;22;20051;-72
2022/10/31 20:41:37;;;;;;;2.03;1.92;;;;;;;;;;6301379;22;20011;-73
2022/10/31 20:44:03;;;;;;;3.03;1.70;;;;;;;;;;6302269;22;20023;-73
2022/10/31 20:46:29;;;;;;;1.92;1.50;;;;;;;;;;6302621;22;20454;-73
2022/10/31 20:48:56;;;;;;;1.58;1.58;;;;;;;;;;6248943;22;20483;-73
2022/10/31 20:51:23;;;;;;;1.67;1.58;;;;;;;;;;6301699;22;20007;-74
2022/10/31 20:53:52;;;;;;;1.85;1.75;;;;;;;;;;6302393;22;20017;-73
2022/10/31 20:56:18;;;;;;;1.75;1.65;;;;;;;;;;6274564;22;20093;-73
2022/10/31 20:58:45;;;;;;;1.85;1.75;;;;;;;;;;6248493;22;20094;-73
2022/10/31 21:01:11;;;;;;;1.90;1.80;;;;;;;;;;6302157;22;20019;-73
2022/10/31 21:03:37;;;;;;;1.98;1.80;;;;;;;;;;6301811;22;20027;-73
2022/10/31 21:06:03;;;;;;;1.20;1.20;;;;;;;;;;6302272;22;20485;-73
2022/10/31 21:08:29;;;;;;;1.52;1.42;;;;;;;;;;6274452;22;20038;-73
2022/10/31 21:10:56;;;;;;;1.65;1.55;;;;;;;;;;6274097;22;20050;-73
2022/10/31 21:13:21;;;;;;;1.60;1.50;;;;;;;;;;6301385;22;20023;-73
2022/10/31 21:15:47;;;;;;;1.55;1.52;;;;;;;;;;6248855;22;20011;-73
2022/10/31 21:18:13;;;;;;;1.80;1.70;;;;;;;;;;6302878;22;20103;-74
2022/10/31 21:20:42;;;;;;;1.60;1.50;;;;;;;;;;6302961;22;20007;-73
2022/10/31 21:23:11;;;;;;;1.65;1.55;;;;;;;;;;6307916;22;20026;-73
2022/10/31 21:25:41;;;;;;;2.00;1.75;;;;;;;;;;6253584;22;20015;-73
2022/10/31 21:28:07;;;;;;;1.52;1.52;;;;;;;;;;6276244;22;20019;-73
2022/10/31 21:30:34;;;;;;;1.27;1.27;;;;;;;;;;6275386;22;20071;-73
2022/10/31 21:32:59;;;;;;;1.58;1.48;;;;;;;;;;6303505;22;20411;-73
2022/10/31 21:35:25;;;;;;;1.30;1.30;;;;;;;;;;6303164;22;20011;-73
2022/10/31 21:37:51;;;;;;;1.73;1.65;;;;;;;;;;6274271;22;20491;-70
2022/10/31 21:40:17;;;;;;;2.40;2.25;;;;;;;;;;6300721;22;20020;-69
2022/10/31 21:42:43;;;;;;;3.25;2.95;;;;;;;;;;6301426;22;20660;-69
2022/10/31 21:45:09;;;;;;;3.03;2.83;;;;;;;;;;6302640;22;20007;-69
2022/10/31 21:47:34;;;;;;;3.10;2.90;;;;;;;;;;6302942;22;20011;-70
2022/10/31 21:50:00;;;;;;;1.63;1.60;;;;;;;;;;6302867;22;20068;-68
2022/10/31 21:52:26;;;;;;;1.63;1.55;;;;;;;;;;6302591;22;20007;-70
2022/10/31 21:54:52;;;;;;;1.50;1.50;;;;;;;;;;6274757;22;20023;-69
2022/10/31 21:57:18;;;;;;;1.40;1.40;;;;;;;;;;6302464;22;20100;-71
2022/10/31 21:59:47;;;;;;;2.60;1.70;;;;;;;;;;6275998;22;20026;-70
2022/10/31 22:02:13;;;;;;;1.40;1.40;;;;;;;;;;6303681;22;20039;-70
2022/10/31 22:04:42;;;;;;;1.15;1.15;;;;;;;;;;6301172;22;20384;-70
2022/10/31 22:07:08;;;;;;;1.60;1.60;;;;;;;;;;6303212;22;20357;-70
2022/10/31 22:09:35;;;;;;;1.40;1.40;;;;;;;;;;6302580;22;20011;-70
2022/10/31 22:12:05;;;;;;;1.55;1.45;;;;;;;;;;6302633;22;20007;-70
2022/10/31 22:14:31;;;;;;;1.20;1.20;;;;;;;;;;6302399;22;20054;-69
2022/10/31 22:16:57;;;;;;;1.38;1.30;;;;;;;;;;6302305;22;20242;-71
2022/10/31 22:19:23;;;;;;;2.67;1.50;;;;;;;;;;6302243;22;20456;-70
2022/10/31 22:21:49;;;;;;;1.23;1.20;;;;;;;;;;6302146;22;20015;-68
2022/10/31 22:24:15;;;;;;;1.50;1.50;;;;;;;;;;6302260;22;20443;-71
2022/10/31 22:26:41;;;;;;;1.45;1.35;;;;;;;;;;6302070;22;20458;-70
2022/10/31 22:29:10;;;;;;;1.10;1.10;;;;;;;;;;6302364;22;20015;-69
2022/10/31 22:31:37;;;;;;;1.80;1.58;;;;;;;;;;6274968;22;20033;-69
2022/10/31 22:34:03;;;;;;;1.80;1.70;;;;;;;;;;6302713;22;20007;-70
2022/10/31 22:36:29;;;;;;;3.38;3.17;;;;;;;;;;6303198;22;20098;-69
2022/10/31 22:38:55;;;;;;;2.30;2.20;;;;;;;;;;6303057;22;20007;-70
2022/10/31 22:41:22;;;;;;;1.98;1.88;;;;;;;;;;6303134;22;20011;-70
2022/10/31 22:43:48;;;;;;;1.63;1.63;;;;;;;;;;6303066;22;20062;-70
2022/10/31 22:46:15;;;;;;;2.40;2.20;;;;;;;;;;6303099;22;20007;-70
2022/10/31 22:48:42;;;;;;;1.80;1.70;;;;;;;;;;6275281;22;20277;-70
2022/10/31 22:51:12;;;;;;;2.45;1.80;;;;;;;;;;6302231;22;20007;-69
2022/10/31 22:53:38;;;;;;;1.40;1.40;;;;;;;;;;6301922;22;20022;-69
2022/10/31 22:56:05;;;;;;;1.83;1.77;;;;;;;;;;6302168;22;20394;-70
2022/10/31 22:58:30;;;;;;;3.00;2.80;;;;;;;;;;6301955;22;20029;-70
2022/10/31 23:00:56;;;;;;;3.78;3.58;;;;;;;;;;6301968;22;20018;-70
2022/10/31 23:03:22;;;;;;;2.20;2.10;;;;;;;;;;6302145;22;20023;-68
2022/10/31 23:05:58;;;;;;;2.92;2.10;;;;;;;;;;6301655;22;20011;-70
2022/10/31 23:08:24;;;;;;;2.30;2.20;;;;;;;;;;6302190;22;20011;-71
2022/10/31 23:10:50;;;;;;;1.70;1.60;;;;;;;;;;6301420;22;20007;-69
2022/10/31 23:16:01;;;;;;;1.58;1.58;;;;;;;;;;6274073;22;20011;-69
2022/10/31 23:18:26;;;;;;;1.90;1.80;;;;;;;;;;6302252;22;20046;-70
2022/10/31 23:20:52;;;;;;;1.50;1.42;;;;;;;;;;6301494;22;20019;-69
2022/10/31 23:23:19;;;;;;;1.60;1.60;;;;;;;;;;6249296;22;20030;-70
2022/10/31 23:28:29;;;;;;;1.23;1.20;;;;;;;;;;6274596;22;20091;-70
2022/10/31 23:30:55;;;;;;;2.10;2.00;;;;;;;;;;6301675;22;20045;-70
2022/10/31 23:33:21;;;;;;;1.35;1.33;;;;;;;;;;6302129;22;20007;-69
2022/10/31 23:35:47;;;;;;;1.30;1.30;;;;;;;;;;6301425;22;20080;-70
2022/10/31 23:38:13;;;;;;;1.65;1.55;;;;;;;;;;6302016;22;20478;-69
2022/10/31 23:40:39;;;;;;;2.63;1.50;;;;;;;;;;6301565;22;20023;-70
2022/10/31 23:43:05;;;;;;;1.60;1.50;;;;;;;;;;6274990;22;20024;-69
2022/10/31 23:45:31;;;;;;;1.85;1.70;;;;;;;;;;6276437;22;20098;-70
2022/10/31 23:47:57;;;;;;;2.25;1.45;;;;;;;;;;6276367;22;20137;-70
2022/10/31 23:50:23;;;;;;;1.05;1.05;;;;;;;;;;6303758;22;20506;-70
2022/10/31 23:52:49;;;;;;;1.33;1.33;;;;;;;;;;6303522;22;20045;-70
2022/10/31 23:55:15;;;;;;;1.10;1.10;;;;;;;;;;6303813;22;20054;-70
2022/10/31 23:57:41;;;;;;;1.40;1.35;;;;;;;;;;6250830;22;20038;-69
